Troy, Illinois
Current Conditions -  °F | °C
As of 4:58 AM on Friday 19 Dec 2014 (Local Time) from KBLV Reporting Station
Clear Clear  
Wind Chill: 26°   Ceiling: Unl
Heat Index: 26°   Visibility: 8mi
Dew Point: 26°   Wind: 3mph
Humidity: 99%   Direction: 10°N
Pressure: 30.28"   Gusts: NA
Location:  38.73°N, 89.88°W
Report Text: KBLV 191058Z AUTO 01003KT 8SM CLR M03/M03 A3028 RMK AO2 SLP262 T10341035
Loading
Personal Weather Stations






























Interactive Weather Map New forecast layout! Learn more

10-Day Weather Forecast

Advertisements
Track Severe Weather on mobile